sensor_id;sensor_type;location;lat;lon;timestamp;P1;durP1;ratioP1;P2;durP2;ratioP2
30335;SDS011;17142;47.990;7.846;2022-11-20T00:01:13;3.90;;;2.70;;
30335;SDS011;17142;47.990;7.846;2022-11-20T00:03:50;5.13;;;3.70;;
30335;SDS011;17142;47.990;7.846;2022-11-20T00:06:21;3.37;;;2.67;;
30335;SDS011;17142;47.990;7.846;2022-11-20T00:08:48;3.30;;;3.00;;
30335;SDS011;17142;47.990;7.846;2022-11-20T00:11:18;4.63;;;3.10;;
30335;SDS011;17142;47.990;7.846;2022-11-20T00:13:47;4.23;;;2.70;;
30335;SDS011;17142;47.990;7.846;2022-11-20T00:16:15;2.83;;;2.53;;
30335;SDS011;17142;47.990;7.846;2022-11-20T00:18:42;2.63;;;2.43;;
30335;SDS011;17142;47.990;7.846;2022-11-20T00:21:12;2.90;;;2.60;;
30335;SDS011;17142;47.990;7.846;2022-11-20T00:23:39;3.70;;;3.40;;
30335;SDS011;17142;47.990;7.846;2022-11-20T00:26:07;4.73;;;3.90;;
30335;SDS011;17142;47.990;7.846;2022-11-20T00:28:37;4.73;;;3.37;;
30335;SDS011;17142;47.990;7.846;2022-11-20T00:31:11;4.60;;;4.10;;
30335;SDS011;17142;47.990;7.846;2022-11-20T00:33:38;4.87;;;4.27;;
30335;SDS011;17142;47.990;7.846;2022-11-20T00:36:05;5.20;;;4.10;;
30335;SDS011;17142;47.990;7.846;2022-11-20T00:38:35;4.73;;;4.23;;
30335;SDS011;17142;47.990;7.846;2022-11-20T00:41:03;5.80;;;4.43;;
30335;SDS011;17142;47.990;7.846;2022-11-20T00:43:30;5.90;;;4.23;;
30335;SDS011;17142;47.990;7.846;2022-11-20T00:46:10;4.53;;;3.57;;
30335;SDS011;17142;47.990;7.846;2022-11-20T00:48:38;6.43;;;3.83;;
30335;SDS011;17142;47.990;7.846;2022-11-20T00:51:08;6.90;;;4.97;;
30335;SDS011;17142;47.990;7.846;2022-11-20T00:53:35;4.03;;;3.40;;
30335;SDS011;17142;47.990;7.846;2022-11-20T00:56:13;5.30;;;3.80;;
30335;SDS011;17142;47.990;7.846;2022-11-20T00:58:41;5.90;;;4.10;;
30335;SDS011;17142;47.990;7.846;2022-11-20T01:01:09;4.30;;;3.90;;
30335;SDS011;17142;47.990;7.846;2022-11-20T01:03:41;5.20;;;3.90;;
30335;SDS011;17142;47.990;7.846;2022-11-20T01:06:27;7.20;;;4.90;;
30335;SDS011;17142;47.990;7.846;2022-11-20T01:09:01;7.70;;;4.43;;
30335;SDS011;17142;47.990;7.846;2022-11-20T01:11:32;9.80;;;4.87;;
30335;SDS011;17142;47.990;7.846;2022-11-20T01:14:01;4.23;;;3.70;;
30335;SDS011;17142;47.990;7.846;2022-11-20T01:16:32;5.67;;;4.40;;
30335;SDS011;17142;47.990;7.846;2022-11-20T01:18:58;4.33;;;3.93;;
30335;SDS011;17142;47.990;7.846;2022-11-20T01:21:29;7.07;;;4.33;;
30335;SDS011;17142;47.990;7.846;2022-11-20T01:23:59;6.10;;;4.60;;
30335;SDS011;17142;47.990;7.846;2022-11-20T01:26:26;5.57;;;3.70;;
30335;SDS011;17142;47.990;7.846;2022-11-20T01:28:56;7.57;;;4.33;;
30335;SDS011;17142;47.990;7.846;2022-11-20T01:31:24;6.37;;;3.87;;
30335;SDS011;17142;47.990;7.846;2022-11-20T01:33:51;3.80;;;3.50;;
30335;SDS011;17142;47.990;7.846;2022-11-20T01:36:19;4.73;;;3.57;;
30335;SDS011;17142;47.990;7.846;2022-11-20T01:38:50;3.90;;;3.57;;
30335;SDS011;17142;47.990;7.846;2022-11-20T01:41:17;4.67;;;3.63;;
30335;SDS011;17142;47.990;7.846;2022-11-20T01:44:02;6.30;;;3.90;;
30335;SDS011;17142;47.990;7.846;2022-11-20T01:46:31;4.53;;;3.57;;
30335;SDS011;17142;47.990;7.846;2022-11-20T01:49:07;5.83;;;3.47;;
30335;SDS011;17142;47.990;7.846;2022-11-20T01:51:42;3.87;;;3.07;;
30335;SDS011;17142;47.990;7.846;2022-11-20T01:54:16;4.77;;;3.90;;
30335;SDS011;17142;47.990;7.846;2022-11-20T01:56:45;6.63;;;4.00;;
30335;SDS011;17142;47.990;7.846;2022-11-20T01:59:13;5.70;;;4.40;;
30335;SDS011;17142;47.990;7.846;2022-11-20T02:01:42;5.80;;;4.83;;
30335;SDS011;17142;47.990;7.846;2022-11-20T02:04:08;5.73;;;3.93;;
30335;SDS011;17142;47.990;7.846;2022-11-20T02:06:35;8.07;;;4.53;;
30335;SDS011;17142;47.990;7.846;2022-11-20T02:09:07;4.70;;;3.23;;
30335;SDS011;17142;47.990;7.846;2022-11-20T02:11:36;4.20;;;3.27;;
30335;SDS011;17142;47.990;7.846;2022-11-20T02:14:02;5.13;;;3.80;;
30335;SDS011;17142;47.990;7.846;2022-11-20T02:16:35;5.50;;;4.00;;
30335;SDS011;17142;47.990;7.846;2022-11-20T02:19:09;5.03;;;4.17;;
30335;SDS011;17142;47.990;7.846;2022-11-20T02:24:38;7.80;;;4.80;;
30335;SDS011;17142;47.990;7.846;2022-11-20T02:27:06;6.00;;;4.60;;
30335;SDS011;17142;47.990;7.846;2022-11-20T02:34:53;4.23;;;3.40;;
30335;SDS011;17142;47.990;7.846;2022-11-20T02:37:22;5.63;;;3.70;;
30335;SDS011;17142;47.990;7.846;2022-11-20T02:39:54;4.30;;;3.87;;
30335;SDS011;17142;47.990;7.846;2022-11-20T02:42:19;11.37;;;4.50;;
30335;SDS011;17142;47.990;7.846;2022-11-20T02:44:45;8.63;;;4.43;;
30335;SDS011;17142;47.990;7.846;2022-11-20T02:47:10;4.43;;;3.17;;
30335;SDS011;17142;47.990;7.846;2022-11-20T02:49:36;5.70;;;4.07;;
30335;SDS011;17142;47.990;7.846;2022-11-20T02:52:02;8.77;;;4.67;;
30335;SDS011;17142;47.990;7.846;2022-11-20T02:54:27;7.47;;;3.97;;
30335;SDS011;17142;47.990;7.846;2022-11-20T02:56:53;4.27;;;3.83;;
30335;SDS011;17142;47.990;7.846;2022-11-20T02:59:18;5.83;;;3.20;;
30335;SDS011;17142;47.990;7.846;2022-11-20T03:01:44;4.63;;;4.13;;
30335;SDS011;17142;47.990;7.846;2022-11-20T03:04:10;6.27;;;3.50;;
30335;SDS011;17142;47.990;7.846;2022-11-20T03:06:35;3.93;;;3.10;;
30335;SDS011;17142;47.990;7.846;2022-11-20T03:09:01;3.97;;;2.97;;
30335;SDS011;17142;47.990;7.846;2022-11-20T03:11:29;3.23;;;2.60;;
30335;SDS011;17142;47.990;7.846;2022-11-20T03:13:57;5.07;;;2.93;;
30335;SDS011;17142;47.990;7.846;2022-11-20T03:16:27;3.60;;;2.53;;
30335;SDS011;17142;47.990;7.846;2022-11-20T03:18:58;5.20;;;3.27;;
30335;SDS011;17142;47.990;7.846;2022-11-20T03:21:27;3.53;;;3.23;;
30335;SDS011;17142;47.990;7.846;2022-11-20T03:23:55;3.50;;;3.20;;
30335;SDS011;17142;47.990;7.846;2022-11-20T03:26:21;5.40;;;3.37;;
30335;SDS011;17142;47.990;7.846;2022-11-20T03:28:51;5.93;;;3.77;;
30335;SDS011;17142;47.990;7.846;2022-11-20T03:31:18;3.83;;;3.43;;
30335;SDS011;17142;47.990;7.846;2022-11-20T03:33:45;7.67;;;3.73;;
30335;SDS011;17142;47.990;7.846;2022-11-20T03:36:12;7.40;;;4.40;;
30335;SDS011;17142;47.990;7.846;2022-11-20T03:38:42;5.67;;;4.50;;
30335;SDS011;17142;47.990;7.846;2022-11-20T03:41:12;4.67;;;3.67;;
30335;SDS011;17142;47.990;7.846;2022-11-20T03:43:49;5.47;;;4.10;;
30335;SDS011;17142;47.990;7.846;2022-11-20T03:46:25;9.07;;;4.07;;
30335;SDS011;17142;47.990;7.846;2022-11-20T03:48:52;7.37;;;4.00;;
30335;SDS011;17142;47.990;7.846;2022-11-20T03:51:19;4.90;;;3.57;;
30335;SDS011;17142;47.990;7.846;2022-11-20T03:53:56;6.80;;;3.30;;
30335;SDS011;17142;47.990;7.846;2022-11-20T03:56:24;4.10;;;2.97;;
30335;SDS011;17142;47.990;7.846;2022-11-20T03:58:51;6.33;;;3.57;;
30335;SDS011;17142;47.990;7.846;2022-11-20T04:01:28;6.40;;;4.83;;
30335;SDS011;17142;47.990;7.846;2022-11-20T04:03:58;5.00;;;3.50;;
30335;SDS011;17142;47.990;7.846;2022-11-20T04:06:33;5.47;;;3.60;;
30335;SDS011;17142;47.990;7.846;2022-11-20T04:09:02;3.90;;;3.17;;
30335;SDS011;17142;47.990;7.846;2022-11-20T04:11:28;3.70;;;3.33;;
30335;SDS011;17142;47.990;7.846;2022-11-20T04:13:59;5.10;;;3.27;;
30335;SDS011;17142;47.990;7.846;2022-11-20T04:16:32;4.97;;;3.40;;
30335;SDS011;17142;47.990;7.846;2022-11-20T04:19:02;4.17;;;3.33;;
30335;SDS011;17142;47.990;7.846;2022-11-20T04:21:34;4.60;;;3.10;;
30335;SDS011;17142;47.990;7.846;2022-11-20T04:24:00;3.53;;;1.97;;
30335;SDS011;17142;47.990;7.846;2022-11-20T04:26:26;3.80;;;2.13;;
30335;SDS011;17142;47.990;7.846;2022-11-20T04:28:53;4.40;;;2.40;;
30335;SDS011;17142;47.990;7.846;2022-11-20T04:31:23;4.17;;;2.50;;
30335;SDS011;17142;47.990;7.846;2022-11-20T04:33:53;3.23;;;2.20;;
30335;SDS011;17142;47.990;7.846;2022-11-20T04:36:25;2.20;;;2.00;;
30335;SDS011;17142;47.990;7.846;2022-11-20T04:39:01;2.40;;;2.10;;
30335;SDS011;17142;47.990;7.846;2022-11-20T04:41:30;2.10;;;1.90;;
30335;SDS011;17142;47.990;7.846;2022-11-20T04:44:03;2.13;;;1.80;;
30335;SDS011;17142;47.990;7.846;2022-11-20T04:46:51;2.40;;;2.10;;
30335;SDS011;17142;47.990;7.846;2022-11-20T04:49:18;2.87;;;1.90;;
30335;SDS011;17142;47.990;7.846;2022-11-20T04:51:46;1.90;;;1.80;;
30335;SDS011;17142;47.990;7.846;2022-11-20T04:54:11;2.00;;;1.40;;
30335;SDS011;17142;47.990;7.846;2022-11-20T04:56:37;1.93;;;1.47;;
30335;SDS011;17142;47.990;7.846;2022-11-20T04:59:07;2.70;;;1.57;;
30335;SDS011;17142;47.990;7.846;2022-11-20T05:01:35;2.13;;;1.93;;
30335;SDS011;17142;47.990;7.846;2022-11-20T05:04:01;3.20;;;2.10;;
30335;SDS011;17142;47.990;7.846;2022-11-20T05:06:29;2.10;;;1.53;;
30335;SDS011;17142;47.990;7.846;2022-11-20T05:08:57;2.30;;;2.20;;
30335;SDS011;17142;47.990;7.846;2022-11-20T05:11:26;2.33;;;1.90;;
30335;SDS011;17142;47.990;7.846;2022-11-20T05:13:57;2.17;;;1.60;;
30335;SDS011;17142;47.990;7.846;2022-11-20T05:16:26;4.77;;;1.93;;
30335;SDS011;17142;47.990;7.846;2022-11-20T05:18:54;1.73;;;1.63;;
30335;SDS011;17142;47.990;7.846;2022-11-20T05:21:20;2.97;;;1.60;;
30335;SDS011;17142;47.990;7.846;2022-11-20T05:23:48;2.67;;;2.00;;
30335;SDS011;17142;47.990;7.846;2022-11-20T05:26:15;2.87;;;2.63;;
30335;SDS011;17142;47.990;7.846;2022-11-20T05:28:46;5.17;;;2.10;;
30335;SDS011;17142;47.990;7.846;2022-11-20T05:31:13;2.83;;;2.13;;
30335;SDS011;17142;47.990;7.846;2022-11-20T05:33:44;2.63;;;2.07;;
30335;SDS011;17142;47.990;7.846;2022-11-20T05:36:11;2.20;;;2.00;;
30335;SDS011;17142;47.990;7.846;2022-11-20T05:38:40;2.87;;;2.17;;
30335;SDS011;17142;47.990;7.846;2022-11-20T05:41:12;3.43;;;2.70;;
30335;SDS011;17142;47.990;7.846;2022-11-20T05:43:40;2.27;;;2.07;;
30335;SDS011;17142;47.990;7.846;2022-11-20T05:46:07;2.67;;;1.90;;
30335;SDS011;17142;47.990;7.846;2022-11-20T05:48:34;2.37;;;2.00;;
30335;SDS011;17142;47.990;7.846;2022-11-20T05:51:01;3.43;;;2.17;;
30335;SDS011;17142;47.990;7.846;2022-11-20T05:53:29;5.20;;;2.50;;
30335;SDS011;17142;47.990;7.846;2022-11-20T05:58:36;2.67;;;2.07;;
30335;SDS011;17142;47.990;7.846;2022-11-20T06:01:10;2.60;;;2.40;;
30335;SDS011;17142;47.990;7.846;2022-11-20T06:03:36;2.60;;;2.40;;
30335;SDS011;17142;47.990;7.846;2022-11-20T06:06:02;5.60;;;2.70;;
30335;SDS011;17142;47.990;7.846;2022-11-20T06:08:32;2.83;;;2.33;;
30335;SDS011;17142;47.990;7.846;2022-11-20T06:11:02;2.50;;;2.30;;
30335;SDS011;17142;47.990;7.846;2022-11-20T06:13:35;3.00;;;2.70;;
30335;SDS011;17142;47.990;7.846;2022-11-20T06:16:01;3.63;;;2.90;;
30335;SDS011;17142;47.990;7.846;2022-11-20T06:18:30;3.47;;;2.33;;
30335;SDS011;17142;47.990;7.846;2022-11-20T06:20:59;3.70;;;2.60;;
30335;SDS011;17142;47.990;7.846;2022-11-20T06:23:29;2.50;;;2.30;;
30335;SDS011;17142;47.990;7.846;2022-11-20T06:25:56;3.20;;;2.90;;
30335;SDS011;17142;47.990;7.846;2022-11-20T06:28:24;3.00;;;2.63;;
30335;SDS011;17142;47.990;7.846;2022-11-20T06:30:50;3.57;;;2.90;;
30335;SDS011;17142;47.990;7.846;2022-11-20T06:33:15;3.20;;;2.40;;
30335;SDS011;17142;47.990;7.846;2022-11-20T06:35:41;4.53;;;2.73;;
30335;SDS011;17142;47.990;7.846;2022-11-20T06:38:07;3.30;;;3.00;;
30335;SDS011;17142;47.990;7.846;2022-11-20T06:40:35;4.97;;;2.60;;
30335;SDS011;17142;47.990;7.846;2022-11-20T06:43:00;2.43;;;2.20;;
30335;SDS011;17142;47.990;7.846;2022-11-20T06:45:26;2.87;;;2.47;;
30335;SDS011;17142;47.990;7.846;2022-11-20T06:47:51;3.17;;;2.40;;
30335;SDS011;17142;47.990;7.846;2022-11-20T06:50:17;2.43;;;2.13;;
30335;SDS011;17142;47.990;7.846;2022-11-20T06:52:47;5.93;;;2.20;;
30335;SDS011;17142;47.990;7.846;2022-11-20T06:55:13;2.63;;;2.23;;
30335;SDS011;17142;47.990;7.846;2022-11-20T06:57:38;5.07;;;2.67;;
30335;SDS011;17142;47.990;7.846;2022-11-20T07:00:04;3.23;;;2.63;;
30335;SDS011;17142;47.990;7.846;2022-11-20T07:02:30;3.27;;;2.97;;
30335;SDS011;17142;47.990;7.846;2022-11-20T07:04:56;2.40;;;2.20;;
30335;SDS011;17142;47.990;7.846;2022-11-20T07:07:26;2.57;;;2.37;;
30335;SDS011;17142;47.990;7.846;2022-11-20T07:09:51;3.27;;;2.73;;
30335;SDS011;17142;47.990;7.846;2022-11-20T07:12:17;2.60;;;2.40;;
30335;SDS011;17142;47.990;7.846;2022-11-20T07:14:42;3.00;;;2.57;;
30335;SDS011;17142;47.990;7.846;2022-11-20T07:17:08;2.60;;;2.40;;
30335;SDS011;17142;47.990;7.846;2022-11-20T07:19:34;2.60;;;2.40;;
30335;SDS011;17142;47.990;7.846;2022-11-20T07:21:59;3.27;;;2.67;;
30335;SDS011;17142;47.990;7.846;2022-11-20T07:24:25;3.07;;;2.10;;
30335;SDS011;17142;47.990;7.846;2022-11-20T07:26:53;2.00;;;1.90;;
30335;SDS011;17142;47.990;7.846;2022-11-20T07:29:18;4.63;;;2.73;;
30335;SDS011;17142;47.990;7.846;2022-11-20T07:31:44;2.43;;;2.00;;
30335;SDS011;17142;47.990;7.846;2022-11-20T07:34:10;2.43;;;2.20;;
30335;SDS011;17142;47.990;7.846;2022-11-20T07:36:38;4.63;;;3.23;;
30335;SDS011;17142;47.990;7.846;2022-11-20T07:39:04;2.67;;;2.47;;
30335;SDS011;17142;47.990;7.846;2022-11-20T07:41:30;2.20;;;1.87;;
30335;SDS011;17142;47.990;7.846;2022-11-20T07:43:58;2.50;;;2.30;;
30335;SDS011;17142;47.990;7.846;2022-11-20T07:46:23;2.77;;;1.73;;
30335;SDS011;17142;47.990;7.846;2022-11-20T07:48:52;4.80;;;2.57;;
30335;SDS011;17142;47.990;7.846;2022-11-20T07:51:17;5.07;;;2.43;;
30335;SDS011;17142;47.990;7.846;2022-11-20T07:53:45;2.07;;;1.87;;
30335;SDS011;17142;47.990;7.846;2022-11-20T07:56:11;6.27;;;2.40;;
30335;SDS011;17142;47.990;7.846;2022-11-20T07:58:38;2.17;;;1.87;;
30335;SDS011;17142;47.990;7.846;2022-11-20T08:01:07;2.87;;;2.50;;
30335;SDS011;17142;47.990;7.846;2022-11-20T08:03:33;3.13;;;2.13;;
30335;SDS011;17142;47.990;7.846;2022-11-20T08:06:00;4.33;;;1.90;;
30335;SDS011;17142;47.990;7.846;2022-11-20T08:08:26;2.73;;;2.50;;
30335;SDS011;17142;47.990;7.846;2022-11-20T08:10:52;2.50;;;2.27;;
30335;SDS011;17142;47.990;7.846;2022-11-20T08:13:41;3.83;;;2.23;;
30335;SDS011;17142;47.990;7.846;2022-11-20T08:16:24;2.50;;;2.30;;
30335;SDS011;17142;47.990;7.846;2022-11-20T08:18:50;2.80;;;2.60;;
30335;SDS011;17142;47.990;7.846;2022-11-20T08:21:16;3.23;;;2.20;;
30335;SDS011;17142;47.990;7.846;2022-11-20T08:23:41;4.13;;;2.77;;
30335;SDS011;17142;47.990;7.846;2022-11-20T08:26:07;6.50;;;2.53;;
30335;SDS011;17142;47.990;7.846;2022-11-20T08:28:35;2.80;;;2.40;;
30335;SDS011;17142;47.990;7.846;2022-11-20T08:31:05;2.63;;;2.27;;
30335;SDS011;17142;47.990;7.846;2022-11-20T08:33:30;3.40;;;2.47;;
30335;SDS011;17142;47.990;7.846;2022-11-20T08:36:01;2.80;;;2.23;;
30335;SDS011;17142;47.990;7.846;2022-11-20T08:38:27;2.60;;;2.40;;
30335;SDS011;17142;47.990;7.846;2022-11-20T08:40:56;2.80;;;2.57;;
30335;SDS011;17142;47.990;7.846;2022-11-20T08:43:41;2.90;;;2.60;;
30335;SDS011;17142;47.990;7.846;2022-11-20T08:46:07;4.30;;;2.20;;
30335;SDS011;17142;47.990;7.846;2022-11-20T08:48:32;4.53;;;2.43;;
30335;SDS011;17142;47.990;7.846;2022-11-20T08:50:58;3.20;;;2.73;;
30335;SDS011;17142;47.990;7.846;2022-11-20T08:53:24;5.27;;;3.17;;
30335;SDS011;17142;47.990;7.846;2022-11-20T08:55:50;2.43;;;2.10;;
30335;SDS011;17142;47.990;7.846;2022-11-20T08:58:16;2.20;;;1.87;;
30335;SDS011;17142;47.990;7.846;2022-11-20T09:00:41;3.30;;;2.50;;
30335;SDS011;17142;47.990;7.846;2022-11-20T09:03:07;2.40;;;2.20;;
30335;SDS011;17142;47.990;7.846;2022-11-20T09:05:34;2.67;;;2.47;;
30335;SDS011;17142;47.990;7.846;2022-11-20T09:08:00;3.00;;;2.63;;
30335;SDS011;17142;47.990;7.846;2022-11-20T09:10:26;2.43;;;2.23;;
30335;SDS011;17142;47.990;7.846;2022-11-20T09:12:52;3.03;;;2.10;;
30335;SDS011;17142;47.990;7.846;2022-11-20T09:15:20;2.70;;;2.50;;
30335;SDS011;17142;47.990;7.846;2022-11-20T09:17:51;2.40;;;2.20;;
30335;SDS011;17142;47.990;7.846;2022-11-20T09:20:23;3.10;;;2.20;;
30335;SDS011;17142;47.990;7.846;2022-11-20T09:22:49;3.17;;;2.83;;
30335;SDS011;17142;47.990;7.846;2022-11-20T09:25:14;4.20;;;2.50;;
30335;SDS011;17142;47.990;7.846;2022-11-20T09:27:40;2.93;;;2.17;;
30335;SDS011;17142;47.990;7.846;2022-11-20T09:30:11;5.43;;;2.43;;
30335;SDS011;17142;47.990;7.846;2022-11-20T09:32:39;3.70;;;2.40;;
30335;SDS011;17142;47.990;7.846;2022-11-20T09:35:05;3.30;;;1.90;;
30335;SDS011;17142;47.990;7.846;2022-11-20T09:37:31;3.70;;;2.00;;
30335;SDS011;17142;47.990;7.846;2022-11-20T09:39:59;3.97;;;2.50;;
30335;SDS011;17142;47.990;7.846;2022-11-20T09:48:20;5.03;;;2.90;;
30335;SDS011;17142;47.990;7.846;2022-11-20T09:51:13;2.10;;;1.90;;
30335;SDS011;17142;47.990;7.846;2022-11-20T09:56:41;1.50;;;1.40;;
30335;SDS011;17142;47.990;7.846;2022-11-20T09:59:15;3.90;;;2.07;;
30335;SDS011;17142;47.990;7.846;2022-11-20T10:01:58;1.90;;;1.70;;
30335;SDS011;17142;47.990;7.846;2022-11-20T10:04:28;8.43;;;2.33;;
30335;SDS011;17142;47.990;7.846;2022-11-20T10:07:00;2.30;;;1.90;;
30335;SDS011;17142;47.990;7.846;2022-11-20T10:09:40;3.80;;;3.37;;
30335;SDS011;17142;47.990;7.846;2022-11-20T10:23:21;3.40;;;1.97;;
30335;SDS011;17142;47.990;7.846;2022-11-20T10:28:56;2.90;;;2.13;;
30335;SDS011;17142;47.990;7.846;2022-11-20T10:31:37;3.07;;;2.47;;
30335;SDS011;17142;47.990;7.846;2022-11-20T10:35:07;3.20;;;2.43;;
30335;SDS011;17142;47.990;7.846;2022-11-20T10:37:08;3.97;;;2.50;;
30335;SDS011;17142;47.990;7.846;2022-11-20T10:42:34;3.23;;;2.13;;
30335;SDS011;17142;47.990;7.846;2022-11-20T10:47:54;3.70;;;2.40;;
30335;SDS011;17142;47.990;7.846;2022-11-20T10:50:53;2.60;;;2.30;;
30335;SDS011;17142;47.990;7.846;2022-11-20T11:01:48;5.00;;;2.60;;
30335;SDS011;17142;47.990;7.846;2022-11-20T11:06:50;3.43;;;1.80;;
30335;SDS011;17142;47.990;7.846;2022-11-20T11:09:26;2.87;;;2.10;;
30335;SDS011;17142;47.990;7.846;2022-11-20T11:11:58;8.43;;;2.53;;
30335;SDS011;17142;47.990;7.846;2022-11-20T11:14:28;2.90;;;2.60;;
30335;SDS011;17142;47.990;7.846;2022-11-20T11:16:57;3.50;;;2.07;;
30335;SDS011;17142;47.990;7.846;2022-11-20T11:19:25;4.07;;;3.07;;
30335;SDS011;17142;47.990;7.846;2022-11-20T11:21:54;2.67;;;2.07;;
30335;SDS011;17142;47.990;7.846;2022-11-20T11:24:25;4.07;;;2.77;;
30335;SDS011;17142;47.990;7.846;2022-11-20T11:26:53;2.33;;;2.10;;
30335;SDS011;17142;47.990;7.846;2022-11-20T11:29:27;5.13;;;2.30;;
30335;SDS011;17142;47.990;7.846;2022-11-20T11:32:04;2.80;;;2.20;;
30335;SDS011;17142;47.990;7.846;2022-11-20T11:34:32;3.50;;;2.40;;
30335;SDS011;17142;47.990;7.846;2022-11-20T11:36:58;5.03;;;1.87;;
30335;SDS011;17142;47.990;7.846;2022-11-20T11:39:26;2.07;;;1.93;;
30335;SDS011;17142;47.990;7.846;2022-11-20T11:41:53;2.90;;;2.70;;
30335;SDS011;17142;47.990;7.846;2022-11-20T11:44:20;5.07;;;1.87;;
30335;SDS011;17142;47.990;7.846;2022-11-20T11:47:54;2.93;;;1.60;;
30335;SDS011;17142;47.990;7.846;2022-11-20T11:52:53;1.70;;;1.60;;
30335;SDS011;17142;47.990;7.846;2022-11-20T12:01:20;2.00;;;1.50;;
30335;SDS011;17142;47.990;7.846;2022-11-20T12:04:20;6.67;;;2.07;;
30335;SDS011;17142;47.990;7.846;2022-11-20T12:10:37;4.10;;;1.40;;
30335;SDS011;17142;47.990;7.846;2022-11-20T12:16:00;2.93;;;1.73;;
30335;SDS011;17142;47.990;7.846;2022-11-20T12:18:28;2.30;;;1.57;;
30335;SDS011;17142;47.990;7.846;2022-11-20T12:21:00;1.13;;;1.00;;
30335;SDS011;17142;47.990;7.846;2022-11-20T12:29:27;2.10;;;1.47;;
30335;SDS011;17142;47.990;7.846;2022-11-20T12:34:43;2.00;;;1.40;;
30335;SDS011;17142;47.990;7.846;2022-11-20T12:37:44;3.27;;;1.53;;
30335;SDS011;17142;47.990;7.846;2022-11-20T12:43:23;1.40;;;1.30;;
30335;SDS011;17142;47.990;7.846;2022-11-20T12:55:08;3.07;;;2.00;;
30335;SDS011;17142;47.990;7.846;2022-11-20T12:57:44;4.10;;;2.20;;
30335;SDS011;17142;47.990;7.846;2022-11-20T13:00:33;2.43;;;1.20;;
30335;SDS011;17142;47.990;7.846;2022-11-20T13:03:28;6.77;;;1.97;;
30335;SDS011;17142;47.990;7.846;2022-11-20T13:16:30;2.93;;;1.60;;
30335;SDS011;17142;47.990;7.846;2022-11-20T13:19:25;1.37;;;1.10;;
30335;SDS011;17142;47.990;7.846;2022-11-20T13:21:54;2.90;;;1.60;;
30335;SDS011;17142;47.990;7.846;2022-11-20T13:29:29;1.20;;;1.10;;
30335;SDS011;17142;47.990;7.846;2022-11-20T13:32:03;1.23;;;1.13;;
30335;SDS011;17142;47.990;7.846;2022-11-20T13:34:52;1.93;;;1.20;;
30335;SDS011;17142;47.990;7.846;2022-11-20T13:40:04;1.53;;;1.20;;
30335;SDS011;17142;47.990;7.846;2022-11-20T13:42:37;1.87;;;1.67;;
30335;SDS011;17142;47.990;7.846;2022-11-20T13:45:28;3.30;;;1.53;;
30335;SDS011;17142;47.990;7.846;2022-11-20T13:47:56;1.90;;;1.50;;
30335;SDS011;17142;47.990;7.846;2022-11-20T13:58:15;3.67;;;1.73;;
30335;SDS011;17142;47.990;7.846;2022-11-20T14:00:52;2.90;;;1.33;;
30335;SDS011;17142;47.990;7.846;2022-11-20T14:03:23;4.67;;;1.10;;
30335;SDS011;17142;47.990;7.846;2022-11-20T14:05:59;2.37;;;1.70;;
30335;SDS011;17142;47.990;7.846;2022-11-20T14:14:02;3.97;;;2.13;;
30335;SDS011;17142;47.990;7.846;2022-11-20T14:16:33;2.30;;;2.20;;
30335;SDS011;17142;47.990;7.846;2022-11-20T14:21:44;1.80;;;1.67;;
30335;SDS011;17142;47.990;7.846;2022-11-20T14:24:12;2.90;;;2.40;;
30335;SDS011;17142;47.990;7.846;2022-11-20T14:26:44;2.77;;;1.63;;
30335;SDS011;17142;47.990;7.846;2022-11-20T14:29:21;2.43;;;1.57;;
30335;SDS011;17142;47.990;7.846;2022-11-20T14:31:52;2.13;;;1.50;;
30335;SDS011;17142;47.990;7.846;2022-11-20T14:34:23;2.57;;;1.27;;
30335;SDS011;17142;47.990;7.846;2022-11-20T14:36:53;2.67;;;1.50;;
30335;SDS011;17142;47.990;7.846;2022-11-20T14:39:26;4.50;;;2.63;;
30335;SDS011;17142;47.990;7.846;2022-11-20T14:41:58;3.20;;;1.47;;
30335;SDS011;17142;47.990;7.846;2022-11-20T14:44:33;4.53;;;1.63;;
30335;SDS011;17142;47.990;7.846;2022-11-20T14:47:00;5.10;;;1.67;;
30335;SDS011;17142;47.990;7.846;2022-11-20T14:49:28;3.10;;;1.37;;
30335;SDS011;17142;47.990;7.846;2022-11-20T14:52:00;2.30;;;1.20;;
30335;SDS011;17142;47.990;7.846;2022-11-20T14:54:29;1.40;;;1.03;;
30335;SDS011;17142;47.990;7.846;2022-11-20T14:56:56;1.93;;;1.60;;
30335;SDS011;17142;47.990;7.846;2022-11-20T14:59:27;2.00;;;1.80;;
30335;SDS011;17142;47.990;7.846;2022-11-20T15:01:55;2.80;;;1.50;;
30335;SDS011;17142;47.990;7.846;2022-11-20T15:04:29;3.03;;;1.40;;
30335;SDS011;17142;47.990;7.846;2022-11-20T15:06:58;2.40;;;0.80;;
30335;SDS011;17142;47.990;7.846;2022-11-20T15:09:24;1.80;;;1.20;;
30335;SDS011;17142;47.990;7.846;2022-11-20T15:12:03;1.13;;;1.03;;
30335;SDS011;17142;47.990;7.846;2022-11-20T15:14:30;3.50;;;2.37;;
30335;SDS011;17142;47.990;7.846;2022-11-20T15:16:57;4.43;;;2.40;;
30335;SDS011;17142;47.990;7.846;2022-11-20T15:19:25;4.50;;;2.20;;
30335;SDS011;17142;47.990;7.846;2022-11-20T15:21:51;1.80;;;1.37;;
30335;SDS011;17142;47.990;7.846;2022-11-20T15:24:17;1.90;;;1.40;;
30335;SDS011;17142;47.990;7.846;2022-11-20T15:26:43;2.33;;;1.23;;
30335;SDS011;17142;47.990;7.846;2022-11-20T15:29:12;4.57;;;2.17;;
30335;SDS011;17142;47.990;7.846;2022-11-20T15:31:39;1.97;;;1.20;;
30335;SDS011;17142;47.990;7.846;2022-11-20T15:34:10;5.00;;;2.17;;
30335;SDS011;17142;47.990;7.846;2022-11-20T15:36:37;2.17;;;1.27;;
30335;SDS011;17142;47.990;7.846;2022-11-20T15:39:06;2.80;;;1.53;;
30335;SDS011;17142;47.990;7.846;2022-11-20T15:41:36;1.80;;;1.67;;
30335;SDS011;17142;47.990;7.846;2022-11-20T15:44:03;1.57;;;1.30;;
30335;SDS011;17142;47.990;7.846;2022-11-20T15:46:30;1.67;;;1.50;;
30335;SDS011;17142;47.990;7.846;2022-11-20T15:49:05;3.27;;;1.87;;
30335;SDS011;17142;47.990;7.846;2022-11-20T15:51:37;2.40;;;1.97;;
30335;SDS011;17142;47.990;7.846;2022-11-20T15:54:22;1.67;;;1.47;;
30335;SDS011;17142;47.990;7.846;2022-11-20T15:56:50;2.13;;;1.40;;
30335;SDS011;17142;47.990;7.846;2022-11-20T15:59:24;1.57;;;1.20;;
30335;SDS011;17142;47.990;7.846;2022-11-20T16:01:49;2.10;;;1.90;;
30335;SDS011;17142;47.990;7.846;2022-11-20T16:04:15;3.70;;;1.30;;
30335;SDS011;17142;47.990;7.846;2022-11-20T16:06:42;2.17;;;1.50;;
30335;SDS011;17142;47.990;7.846;2022-11-20T16:09:08;2.73;;;1.30;;
30335;SDS011;17142;47.990;7.846;2022-11-20T16:11:34;1.63;;;0.90;;
30335;SDS011;17142;47.990;7.846;2022-11-20T16:14:04;1.90;;;1.30;;
30335;SDS011;17142;47.990;7.846;2022-11-20T16:16:51;1.40;;;0.90;;
30335;SDS011;17142;47.990;7.846;2022-11-20T16:19:16;2.57;;;1.00;;
30335;SDS011;17142;47.990;7.846;2022-11-20T16:21:43;1.40;;;1.00;;
30335;SDS011;17142;47.990;7.846;2022-11-20T16:24:10;2.00;;;1.73;;
30335;SDS011;17142;47.990;7.846;2022-11-20T16:26:39;2.60;;;1.20;;
30335;SDS011;17142;47.990;7.846;2022-11-20T16:29:07;1.03;;;0.73;;
30335;SDS011;17142;47.990;7.846;2022-11-20T16:31:35;1.23;;;0.90;;
30335;SDS011;17142;47.990;7.846;2022-11-20T16:34:02;1.87;;;1.00;;
30335;SDS011;17142;47.990;7.846;2022-11-20T16:36:31;0.80;;;0.60;;
30335;SDS011;17142;47.990;7.846;2022-11-20T16:38:57;1.33;;;1.03;;
30335;SDS011;17142;47.990;7.846;2022-11-20T16:41:27;2.70;;;1.30;;
30335;SDS011;17142;47.990;7.846;2022-11-20T16:43:56;1.70;;;1.10;;
30335;SDS011;17142;47.990;7.846;2022-11-20T16:46:24;1.30;;;0.70;;
30335;SDS011;17142;47.990;7.846;2022-11-20T16:48:58;2.00;;;1.47;;
30335;SDS011;17142;47.990;7.846;2022-11-20T16:51:25;2.87;;;1.40;;
30335;SDS011;17142;47.990;7.846;2022-11-20T16:53:52;2.30;;;1.50;;
30335;SDS011;17142;47.990;7.846;2022-11-20T16:56:20;2.60;;;1.50;;
30335;SDS011;17142;47.990;7.846;2022-11-20T16:58:50;1.90;;;1.30;;
30335;SDS011;17142;47.990;7.846;2022-11-20T17:01:18;2.27;;;1.40;;
30335;SDS011;17142;47.990;7.846;2022-11-20T17:03:46;1.60;;;1.30;;
30335;SDS011;17142;47.990;7.846;2022-11-20T17:06:18;2.30;;;1.63;;